createdAt,value
2023-04-20T00:02:05.599Z,6.75
2023-04-20T00:05:10.208Z,6.66
2023-04-20T00:08:13.684Z,6.58
2023-04-20T00:11:17.052Z,6.49
2023-04-20T00:14:20.312Z,6.46
2023-04-20T00:17:23.823Z,6.73
2023-04-20T00:20:27.041Z,6.80
2023-04-20T00:23:30.342Z,6.83
2023-04-20T00:26:53.200Z,6.88
2023-04-20T00:29:56.551Z,6.99
2023-04-20T00:33:00.048Z,6.97
2023-04-20T00:36:03.381Z,6.76
2023-04-20T00:39:06.112Z,6.96
2023-04-20T00:42:09.931Z,7.03
2023-04-20T00:45:12.680Z,7.04
2023-04-20T00:48:36.048Z,6.96
2023-04-20T00:51:39.860Z,6.94
2023-04-20T00:54:46.753Z,6.95
2023-04-20T00:57:53.078Z,7.15
2023-04-20T01:00:56.321Z,6.97
2023-04-20T01:04:01.776Z,6.85
2023-04-20T01:07:05.815Z,6.93
2023-04-20T01:10:28.917Z,6.96
2023-04-20T01:13:32.058Z,7.02
2023-04-20T01:16:36.746Z,7.11
2023-04-20T01:19:42.092Z,7.04
2023-04-20T01:22:54.313Z,7.01
2023-04-20T01:26:07.023Z,7.02
2023-04-20T01:29:12.094Z,6.98
2023-04-20T01:32:16.815Z,6.96
2023-04-20T01:35:19.461Z,6.82
2023-04-20T01:38:23.783Z,6.84
2023-04-20T01:41:30.048Z,6.87
2023-04-20T01:44:33.350Z,6.54
2023-04-20T01:47:37.166Z,6.44
2023-04-20T01:50:46.037Z,6.23
2023-04-20T01:53:48.747Z,6.27
2023-04-20T01:56:55.236Z,6.26
2023-04-20T01:59:57.867Z,6.18
2023-04-20T02:03:41.045Z,6.11
2023-04-20T02:06:44.144Z,6.17
2023-04-20T02:09:49.301Z,6.23
2023-04-20T02:12:52.268Z,6.32
2023-04-20T02:15:57.620Z,6.10
2023-04-20T02:19:01.219Z,6.21
2023-04-20T02:22:04.009Z,6.40
2023-04-20T02:25:09.178Z,6.20
2023-04-20T02:28:12.904Z,6.00
2023-04-20T02:31:16.916Z,6.19
2023-04-20T02:34:20.782Z,6.05
2023-04-20T02:37:23.809Z,5.97
2023-04-20T02:40:27.168Z,6.07
2023-04-20T02:43:30.745Z,5.76
2023-04-20T02:46:34.345Z,5.48
2023-04-20T02:49:37.611Z,5.40
2023-04-20T02:52:41.418Z,5.45
2023-04-20T02:55:44.452Z,5.49
2023-04-20T02:58:48.768Z,5.13
2023-04-20T03:01:52.545Z,5.08
2023-04-20T03:04:59.656Z,5.18
2023-04-20T03:08:05.709Z,4.82
2023-04-20T03:11:09.017Z,4.91
2023-04-20T03:14:13.048Z,4.89
2023-04-20T03:17:15.686Z,4.86
2023-04-20T03:20:18.852Z,4.84
2023-04-20T03:23:23.700Z,4.83
2023-04-20T03:26:26.977Z,4.82
2023-04-20T03:29:31.909Z,4.72
2023-04-20T03:32:38.487Z,4.71
2023-04-20T03:35:43.124Z,4.70
2023-04-20T03:38:46.981Z,4.65
2023-04-20T03:41:49.792Z,4.62
2023-04-20T03:44:52.923Z,4.77
2023-04-20T03:48:15.744Z,4.59
2023-04-20T03:51:18.853Z,4.59
2023-04-20T03:54:21.526Z,4.49
2023-04-20T03:57:24.975Z,4.45
2023-04-20T04:00:28.134Z,4.60
2023-04-20T04:03:35.085Z,4.74
2023-04-20T04:06:38.035Z,4.46
2023-04-20T04:09:41.031Z,4.35
2023-04-20T04:12:43.915Z,4.51
2023-04-20T04:15:48.132Z,4.59
2023-04-20T04:18:51.090Z,4.81
2023-04-20T04:21:54.800Z,5.00
2023-04-20T04:25:13.849Z,5.14
2023-04-20T04:28:18.279Z,5.02
2023-04-20T04:31:29.764Z,5.39
2023-04-20T04:34:35.856Z,5.56
2023-04-20T04:37:38.572Z,6.16
2023-04-20T04:40:45.620Z,6.10
2023-04-20T04:44:06.336Z,6.75
2023-04-20T04:47:11.902Z,6.55
2023-04-20T04:50:14.816Z,6.85
2023-04-20T04:53:17.992Z,7.06
2023-04-20T04:56:23.568Z,7.13
2023-04-20T04:59:26.898Z,7.14
2023-04-20T05:02:30.586Z,7.38
2023-04-20T05:05:34.315Z,7.51
2023-04-20T05:08:37.545Z,7.58
2023-04-20T05:11:41.683Z,7.69
2023-04-20T05:14:44.308Z,8.35
2023-04-20T05:17:49.736Z,8.83
2023-04-20T05:21:02.998Z,8.86
2023-04-20T05:24:06.592Z,10.31
2023-04-20T05:27:09.842Z,11.03
2023-04-20T05:30:21.369Z,10.13
2023-04-20T05:33:25.301Z,10.01
2023-04-20T05:36:30.095Z,10.37
2023-04-20T05:39:32.748Z,10.10
2023-04-20T05:42:36.158Z,10.66
2023-04-20T05:45:40.818Z,11.05
2023-04-20T05:48:43.950Z,11.71
2023-04-20T05:51:46.897Z,12.58
2023-04-20T05:55:09.996Z,11.91
2023-04-20T05:58:12.756Z,12.27
2023-04-20T06:01:19.885Z,12.53
2023-04-20T06:04:23.944Z,12.99
2023-04-20T06:07:28.840Z,12.63
2023-04-20T06:10:34.316Z,14.55
2023-04-20T06:13:37.139Z,14.60
2023-04-20T06:16:40.719Z,14.80
2023-04-20T06:19:43.727Z,14.15
2023-04-20T06:22:47.135Z,14.77
2023-04-20T06:25:49.807Z,14.06
2023-04-20T06:28:55.581Z,15.37
2023-04-20T06:31:58.450Z,14.56
2023-04-20T06:35:01.968Z,14.45
2023-04-20T06:38:04.835Z,16.43
2023-04-20T06:41:08.690Z,15.54
2023-04-20T06:44:11.719Z,15.42
2023-04-20T06:47:38.761Z,16.33
2023-04-20T06:50:41.597Z,18.57
2023-04-20T14:54:37.337Z,18.58
2023-04-20T14:57:40.628Z,18.65
2023-04-20T15:00:43.336Z,18.67
2023-04-20T15:03:48.310Z,18.62
2023-04-20T15:06:51.581Z,18.60
2023-04-20T15:09:54.547Z,18.83
2023-04-20T15:12:57.366Z,18.67
2023-04-20T15:16:00.394Z,18.69
2023-04-20T15:19:03.080Z,18.19
2023-04-20T15:22:06.451Z,18.33
2023-04-20T15:25:09.600Z,18.21
2023-04-20T15:28:12.912Z,18.16
2023-04-20T15:31:19.249Z,18.40
2023-04-20T15:34:22.549Z,18.34
2023-04-20T15:37:25.340Z,18.14
2023-04-20T15:40:28.536Z,18.11
2023-04-20T15:43:31.349Z,18.09
2023-04-20T15:46:34.354Z,17.83
2023-04-20T15:49:40.606Z,18.03
2023-04-20T15:52:43.911Z,17.80
2023-04-20T15:55:46.594Z,17.66
2023-04-20T15:58:50.590Z,17.49
2023-04-20T16:02:13.151Z,17.09
2023-04-20T16:05:16.112Z,17.10
2023-04-20T16:08:21.086Z,17.02
2023-04-20T16:11:24.617Z,17.01
2023-04-20T16:14:27.377Z,16.95
2023-04-20T16:17:30.420Z,16.98
2023-04-20T16:20:35.952Z,17.03
2023-04-20T16:23:40.183Z,16.89
2023-04-20T16:26:42.890Z,16.53
2023-04-20T16:29:46.428Z,16.68
2023-04-20T16:32:50.029Z,16.65
2023-04-20T16:35:53.061Z,16.66
2023-04-20T16:38:55.850Z,16.54
2023-04-20T16:41:58.930Z,16.45
2023-04-20T16:45:01.741Z,16.54
2023-04-20T16:48:05.562Z,16.05
2023-04-20T16:51:08.603Z,16.05
2023-04-20T16:54:12.815Z,16.05
2023-04-20T16:57:15.624Z,16.04
2023-04-20T17:00:19.067Z,15.91
2023-04-20T17:03:22.061Z,15.84
2023-04-20T17:06:26.233Z,15.75
2023-04-20T17:09:28.916Z,15.57
2023-04-20T17:12:32.316Z,15.50
2023-04-20T17:15:35.125Z,15.32
2023-04-20T17:18:41.683Z,15.17
2023-04-20T17:21:45.652Z,15.03
2023-04-20T17:24:48.749Z,14.87
2023-04-20T17:27:54.330Z,14.71
2023-04-20T17:30:57.450Z,14.55
2023-04-20T17:34:00.738Z,14.49
2023-04-20T17:37:03.951Z,14.40
2023-04-20T17:40:07.714Z,14.32
2023-04-20T17:43:11.238Z,14.34
2023-04-20T17:46:14.038Z,14.28
2023-04-20T17:49:17.416Z,14.22
2023-04-20T17:52:22.251Z,14.17
2023-04-20T17:55:25.494Z,14.18
2023-04-20T17:58:28.225Z,13.85
2023-04-20T18:01:34.466Z,13.43
2023-04-20T18:04:38.968Z,14.21
2023-04-20T18:07:41.974Z,14.49
2023-04-20T18:10:45.020Z,14.18
2023-04-20T18:13:48.410Z,14.39
2023-04-20T18:16:52.564Z,13.88
2023-04-20T18:19:55.342Z,13.88
2023-04-20T18:22:58.432Z,13.80
2023-04-20T18:26:01.219Z,13.64
2023-04-20T18:29:05.423Z,13.35
2023-04-20T18:32:08.154Z,13.41
2023-04-20T18:35:11.705Z,13.39
2023-04-20T18:38:14.582Z,13.42
2023-04-20T18:41:18.242Z,13.48
2023-04-20T18:44:21.532Z,13.32
2023-04-20T18:47:26.383Z,13.29
2023-04-20T18:50:29.137Z,13.27
2023-04-20T18:53:34.406Z,13.24
2023-04-20T18:56:38.674Z,13.11
2023-04-20T18:59:41.698Z,13.20
2023-04-20T19:02:44.587Z,13.04
2023-04-20T19:05:47.969Z,13.11
2023-04-20T19:08:58.801Z,13.18
2023-04-20T19:12:02.251Z,13.23
2023-04-20T19:15:06.137Z,13.16
2023-04-20T19:18:29.075Z,13.05
2023-04-20T19:21:51.787Z,13.08
2023-04-20T19:24:54.743Z,12.99
2023-04-20T19:27:57.668Z,12.99
2023-04-20T19:31:19.245Z,12.93
2023-04-20T19:34:22.017Z,13.11
2023-04-20T19:37:25.341Z,13.06
2023-04-20T19:40:28.973Z,13.21
2023-04-20T19:43:32.143Z,13.18
2023-04-20T19:46:38.744Z,13.09
2023-04-20T19:49:44.116Z,13.35
2023-04-20T19:52:46.927Z,13.40
2023-04-20T19:55:50.115Z,13.14
2023-04-20T19:58:52.860Z,13.03
2023-04-20T20:01:56.314Z,12.92
2023-04-20T20:05:19.483Z,12.96
2023-04-20T20:08:22.215Z,13.16
2023-04-20T20:11:25.845Z,12.98
2023-04-20T20:14:28.612Z,12.99
2023-04-20T20:17:31.687Z,12.88
2023-04-20T20:20:34.583Z,12.85
2023-04-20T20:23:37.757Z,12.83
2023-04-20T20:27:00.771Z,12.84
2023-04-20T20:30:04.247Z,12.80
2023-04-20T20:33:09.567Z,12.70
2023-04-20T20:36:12.708Z,12.69
2023-04-20T20:39:16.099Z,12.55
2023-04-20T20:42:19.418Z,12.52
2023-04-20T20:45:24.786Z,12.53
2023-04-20T20:48:28.088Z,12.47
2023-04-20T20:51:31.650Z,12.48
2023-04-20T20:54:34.731Z,12.66
2023-04-20T20:57:37.433Z,12.50
2023-04-20T21:00:40.625Z,12.49
2023-04-20T21:03:43.672Z,12.47
2023-04-20T21:06:46.975Z,12.47
2023-04-20T21:09:49.681Z,12.47
2023-04-20T21:12:52.796Z,12.43
2023-04-20T21:15:55.691Z,12.50
2023-04-20T21:18:59.559Z,12.45
2023-04-20T21:22:02.490Z,12.44
2023-04-20T21:25:06.446Z,12.41
2023-04-20T21:28:09.210Z,12.44
2023-04-20T21:31:12.389Z,12.41
2023-04-20T21:34:15.191Z,12.30
2023-04-20T21:37:18.369Z,12.19
2023-04-20T21:40:21.049Z,12.08
2023-04-20T21:43:24.150Z,12.04
2023-04-20T21:46:33.262Z,12.00
2023-04-20T21:49:36.453Z,11.82
2023-04-20T21:52:39.120Z,11.69
2023-04-20T21:55:42.144Z,11.56
2023-04-20T21:58:45.258Z,11.54
2023-04-20T22:01:48.487Z,11.41
2023-04-20T22:04:51.639Z,11.37
2023-04-20T22:07:54.316Z,11.41
2023-04-20T22:10:57.359Z,11.26
2023-04-20T22:14:00.465Z,11.20
2023-04-20T22:17:05.015Z,11.18
2023-04-20T22:20:10.026Z,11.19
2023-04-20T22:23:13.127Z,11.23
2023-04-20T22:26:16.181Z,11.13
2023-04-20T22:29:19.465Z,11.03
2023-04-20T22:32:22.566Z,10.97
2023-04-20T22:35:25.621Z,10.89
2023-04-20T22:38:28.563Z,10.97
2023-04-20T22:41:31.598Z,10.85
2023-04-20T22:44:34.409Z,10.79
2023-04-20T22:47:38.719Z,10.76
2023-04-20T22:50:41.564Z,10.71
2023-04-20T22:53:44.935Z,10.61
2023-04-20T22:56:47.564Z,10.57
2023-04-20T22:59:50.716Z,10.50
2023-04-20T23:02:53.580Z,10.31
2023-04-20T23:05:57.691Z,10.23
2023-04-20T23:09:01.509Z,10.15
2023-04-20T23:12:09.778Z,10.09
2023-04-20T23:15:13.386Z,9.92
2023-04-20T23:18:16.610Z,9.87
2023-04-20T23:21:19.352Z,9.71
2023-04-20T23:24:22.295Z,9.57
2023-04-20T23:27:24.992Z,9.48
2023-04-20T23:30:28.144Z,9.44
2023-04-20T23:33:30.830Z,9.27
2023-04-20T23:36:33.771Z,9.20
2023-04-20T23:39:37.784Z,9.20
2023-04-20T23:42:40.773Z,9.07
2023-04-20T23:45:43.519Z,9.01
2023-04-20T23:48:48.832Z,9.12
2023-04-20T23:51:51.525Z,9.11
2023-04-20T23:54:54.628Z,9.16
2023-04-20T23:57:58.444Z,9.11
